createdAt,value
2023-01-01T00:01:27.305Z,100.00
2023-01-01T00:03:56.379Z,100.00
2023-01-01T00:06:23.795Z,100.00
2023-01-01T00:09:11.086Z,100.00
2023-01-01T00:11:37.780Z,100.00
2023-01-01T00:14:11.871Z,100.00
2023-01-01T00:16:39.248Z,100.00
2023-01-01T00:19:06.027Z,100.00
2023-01-01T00:21:32.689Z,100.00
2023-01-01T00:23:59.396Z,100.00
2023-01-01T00:26:29.507Z,100.00
2023-01-01T00:29:01.383Z,100.00
2023-01-01T00:31:28.101Z,100.00
2023-01-01T00:33:56.061Z,100.00
2023-01-01T00:36:24.447Z,100.00
2023-01-01T00:38:51.591Z,100.00
2023-01-01T00:41:18.756Z,100.00
2023-01-01T00:43:46.098Z,100.00
2023-01-01T00:46:13.586Z,100.00
2023-01-01T00:48:40.459Z,100.00
2023-01-01T00:51:08.019Z,100.00
2023-01-01T00:53:34.838Z,100.00
2023-01-01T00:56:01.543Z,100.00
2023-01-01T00:58:28.607Z,100.00
2023-01-01T01:00:55.304Z,100.00
2023-01-01T01:03:30.432Z,100.00
2023-01-01T01:06:00.163Z,100.00
2023-01-01T01:08:30.928Z,100.00
2023-01-01T01:11:07.157Z,100.00
2023-01-01T01:13:33.788Z,100.00
2023-01-01T01:16:00.756Z,100.00
2023-01-01T01:18:27.458Z,100.00
2023-01-01T01:20:54.876Z,100.00
2023-01-01T01:23:21.655Z,100.00
2023-01-01T01:25:48.383Z,100.00
2023-01-01T01:28:15.706Z,100.00
2023-01-01T01:30:42.394Z,100.00
2023-01-01T01:33:09.302Z,100.00
2023-01-01T01:35:36.150Z,100.00
2023-01-01T01:38:02.864Z,100.00
2023-01-01T01:40:29.631Z,100.00
2023-01-01T01:42:56.339Z,100.00
2023-01-01T01:45:27.002Z,100.00
2023-01-01T01:47:59.149Z,100.00
2023-01-01T01:50:31.213Z,100.00
2023-01-01T01:53:08.080Z,100.00
2023-01-01T01:55:39.744Z,100.00
2023-01-01T01:58:10.180Z,100.00
2023-01-01T02:00:37.025Z,100.00
2023-01-01T02:03:08.379Z,100.00
2023-01-01T02:05:36.095Z,100.00
2023-01-01T02:08:05.279Z,100.00
2023-01-01T02:10:32.725Z,100.00
2023-01-01T02:12:59.577Z,100.00
2023-01-01T02:15:31.292Z,100.00
2023-01-01T02:18:18.531Z,100.00
2023-01-01T02:21:00.853Z,100.00
2023-01-01T02:23:43.263Z,100.00
2023-01-01T02:26:45.137Z,100.00
2023-01-01T02:29:25.672Z,100.00
2023-01-01T02:32:13.676Z,100.00
2023-01-01T02:34:46.920Z,100.00
2023-01-01T02:37:17.316Z,100.00
2023-01-01T02:39:51.573Z,100.00
2023-01-01T02:42:19.697Z,100.00
2023-01-01T02:44:49.889Z,100.00
2023-01-01T02:47:20.080Z,100.00
2023-01-01T02:49:54.949Z,100.00
2023-01-01T02:52:52.183Z,100.00
2023-01-01T02:55:42.763Z,100.00
2023-01-01T02:58:38.368Z,100.00
2023-01-01T03:01:38.892Z,100.00
2023-01-01T03:04:15.180Z,100.00
2023-01-01T03:06:55.857Z,100.00
2023-01-01T03:09:41.834Z,100.00
2023-01-01T03:12:39.688Z,100.00
2023-01-01T03:15:26.207Z,100.00
2023-01-01T03:17:53.835Z,100.00
2023-01-01T03:20:24.942Z,100.00
2023-01-01T03:22:55.343Z,100.00
2023-01-01T03:25:28.139Z,100.00
2023-01-01T03:28:01.957Z,100.00
2023-01-01T03:30:31.103Z,100.00
2023-01-01T03:33:06.012Z,100.00
2023-01-01T03:35:36.998Z,100.00
2023-01-01T03:38:09.187Z,100.00
2023-01-01T03:40:38.483Z,100.00
2023-01-01T03:43:12.876Z,100.00
2023-01-01T03:45:44.753Z,100.00
2023-01-01T03:48:12.401Z,100.00
2023-01-01T03:50:54.297Z,100.00
2023-01-01T03:53:33.188Z,100.00
2023-01-01T03:56:07.511Z,100.00
2023-01-01T03:58:41.186Z,100.00
2023-01-01T04:01:15.752Z,100.00
2023-01-01T04:03:42.946Z,100.00
2023-01-01T04:06:11.929Z,100.00
2023-01-01T04:08:39.218Z,100.00
2023-01-01T04:11:32.159Z,100.00
2023-01-01T04:13:58.876Z,100.00
2023-01-01T04:16:25.626Z,100.00
2023-01-01T04:18:52.247Z,100.00
2023-01-01T04:21:18.877Z,100.00
2023-01-01T04:23:45.476Z,100.00
2023-01-01T04:26:14.550Z,100.00
2023-01-01T04:28:42.386Z,100.00
2023-01-01T04:31:11.687Z,100.00
2023-01-01T04:33:38.427Z,100.00
2023-01-01T04:36:07.586Z,100.00
2023-01-01T04:38:35.863Z,100.00
2023-01-01T04:41:03.523Z,100.00
2023-01-01T04:43:31.255Z,100.00
2023-01-01T04:45:59.238Z,100.00
2023-01-01T04:48:26.872Z,100.00
2023-01-01T04:51:04.000Z,100.00
2023-01-01T04:53:33.192Z,100.00
2023-01-01T04:56:05.533Z,100.00
2023-01-01T04:58:33.339Z,100.00
2023-01-01T05:01:00.251Z,100.00
2023-01-01T05:03:27.116Z,100.00
2023-01-01T05:06:06.223Z,100.00
2023-01-01T05:08:34.944Z,100.00
2023-01-01T05:11:03.641Z,100.00
2023-01-01T05:13:30.300Z,100.00
2023-01-01T05:15:57.477Z,100.00
2023-01-01T05:18:24.091Z,100.00
2023-01-01T05:20:50.757Z,100.00
2023-01-01T05:23:18.777Z,100.00
2023-01-01T05:25:45.382Z,100.00
2023-01-01T05:28:11.993Z,100.00
2023-01-01T05:30:40.767Z,100.00
2023-01-01T05:33:07.532Z,100.00
2023-01-01T05:35:34.341Z,100.00
2023-01-01T05:38:01.006Z,100.00
2023-01-01T05:40:27.642Z,100.00
2023-01-01T05:42:54.314Z,100.00
2023-01-01T05:45:20.937Z,100.00
2023-01-01T05:47:47.721Z,100.00
2023-01-01T05:50:14.492Z,100.00
2023-01-01T05:52:41.194Z,100.00
2023-01-01T05:55:08.228Z,100.00
2023-01-01T05:57:34.830Z,100.00
2023-01-01T06:00:01.613Z,100.00
2023-01-01T06:02:31.349Z,100.00
2023-01-01T06:04:58.089Z,100.00
2023-01-01T06:07:24.718Z,100.00
2023-01-01T06:09:51.373Z,100.00
2023-01-01T06:12:17.968Z,100.00
2023-01-01T06:14:44.661Z,100.00
2023-01-01T06:17:11.254Z,100.00
2023-01-01T06:19:37.871Z,100.00
2023-01-01T06:22:05.758Z,100.00
2023-01-01T06:24:37.103Z,100.00
2023-01-01T06:27:07.007Z,100.00
2023-01-01T06:29:33.728Z,100.00
2023-01-01T06:32:00.376Z,100.00
2023-01-01T06:34:27.209Z,100.00
2023-01-01T06:36:53.856Z,100.00
2023-01-01T06:39:20.447Z,100.00
2023-01-01T06:41:47.090Z,100.00
2023-01-01T06:44:13.685Z,100.00
2023-01-01T06:46:40.339Z,100.00
2023-01-01T06:49:11.589Z,100.00
2023-01-01T06:51:40.706Z,100.00
2023-01-01T06:54:08.105Z,100.00
2023-01-01T06:56:35.555Z,100.00
2023-01-01T06:59:02.673Z,100.00
2023-01-01T07:01:35.884Z,100.00
2023-01-01T07:04:08.396Z,100.00
2023-01-01T07:06:35.643Z,100.00
2023-01-01T07:09:02.720Z,100.00
2023-01-01T07:11:29.645Z,100.00
2023-01-01T07:13:56.376Z,100.00
2023-01-01T07:16:23.907Z,100.00
2023-01-01T07:18:51.718Z,100.00
2023-01-01T07:21:43.440Z,100.00
2023-01-01T07:24:12.799Z,100.00
2023-01-01T07:26:40.990Z,100.00
2023-01-01T07:29:08.970Z,100.00
2023-01-01T07:31:37.711Z,100.00
2023-01-01T07:34:06.158Z,100.00
2023-01-01T07:36:33.067Z,100.00
2023-01-01T07:38:59.768Z,100.00
2023-01-01T07:41:26.377Z,100.00
2023-01-01T07:43:52.992Z,100.00
2023-01-01T07:46:19.788Z,100.00
2023-01-01T07:48:46.700Z,100.00
2023-01-01T07:51:13.627Z,100.00
2023-01-01T07:53:40.289Z,100.00
2023-01-01T07:56:07.850Z,100.00
2023-01-01T07:58:34.458Z,100.00
2023-01-01T08:01:01.175Z,100.00
2023-01-01T08:03:27.994Z,100.00
2023-01-01T08:05:54.683Z,100.00
2023-01-01T08:08:21.352Z,100.00
2023-01-01T08:10:47.999Z,100.00
2023-01-01T08:13:14.604Z,100.00
2023-01-01T08:15:41.310Z,100.00
2023-01-01T08:18:08.043Z,100.00
2023-01-01T08:20:34.859Z,100.00
2023-01-01T08:23:06.684Z,100.00
2023-01-01T08:25:34.501Z,100.00
2023-01-01T08:28:01.110Z,100.00
2023-01-01T08:30:27.909Z,100.00
2023-01-01T08:32:54.799Z,100.00
2023-01-01T08:35:21.519Z,100.00
2023-01-01T08:37:48.217Z,100.00
2023-01-01T08:40:15.830Z,100.00
2023-01-01T08:42:42.480Z,100.00
2023-01-01T08:45:09.496Z,100.00
2023-01-01T08:47:36.134Z,100.00
2023-01-01T08:50:02.795Z,100.00
2023-01-01T08:52:29.575Z,100.00
2023-01-01T08:54:56.179Z,100.00
2023-01-01T08:57:22.854Z,100.00
2023-01-01T08:59:49.571Z,100.00
2023-01-01T09:02:16.660Z,100.00
2023-01-01T09:04:43.539Z,100.00
2023-01-01T09:07:10.138Z,100.00
2023-01-01T09:09:36.779Z,100.00
2023-01-01T09:12:06.224Z,100.00
2023-01-01T09:14:34.370Z,100.00
2023-01-01T09:17:01.800Z,100.00
2023-01-01T09:19:28.585Z,100.00
2023-01-01T09:21:55.823Z,100.00
2023-01-01T09:24:22.893Z,100.00
2023-01-01T09:26:50.063Z,100.00
2023-01-01T09:29:20.417Z,100.00
2023-01-01T09:31:48.043Z,100.00
2023-01-01T09:34:14.969Z,100.00
2023-01-01T09:36:41.798Z,100.00
2023-01-01T09:39:12.875Z,100.00
2023-01-01T09:41:54.474Z,100.00
2023-01-01T09:44:57.350Z,100.00
2023-01-01T09:47:32.835Z,100.00
2023-01-01T09:50:08.566Z,100.00
2023-01-01T09:52:44.135Z,100.00
2023-01-01T09:55:25.820Z,100.00
2023-01-01T09:57:54.394Z,100.00
2023-01-01T10:00:21.418Z,100.00
2023-01-01T10:03:18.821Z,100.00
2023-01-01T10:06:01.716Z,100.00
2023-01-01T10:08:58.430Z,100.00
2023-01-01T10:11:30.793Z,100.00
2023-01-01T10:14:01.055Z,100.00
2023-01-01T10:16:45.888Z,100.00
2023-01-01T10:19:27.778Z,100.00
2023-01-01T10:21:58.888Z,100.00
2023-01-01T10:24:45.272Z,100.00
2023-01-01T10:27:29.502Z,100.00
2023-01-01T10:30:03.437Z,100.00
2023-01-01T10:32:34.762Z,100.00
2023-01-01T10:35:03.744Z,100.00
2023-01-01T10:37:35.975Z,100.00
2023-01-01T10:40:13.749Z,100.00
2023-01-01T10:42:40.422Z,100.00
2023-01-01T10:45:14.656Z,100.00
2023-01-01T10:48:16.715Z,100.00
2023-01-01T10:50:50.050Z,100.00
2023-01-01T10:53:25.173Z,100.00
2023-01-01T10:56:02.608Z,100.00
2023-01-01T10:58:51.964Z,100.00
2023-01-01T11:01:18.707Z,100.00
2023-01-01T11:04:04.055Z,100.00
2023-01-01T11:06:47.285Z,100.00
2023-01-01T11:09:26.595Z,100.00
2023-01-01T11:12:09.549Z,100.00
2023-01-01T11:14:49.169Z,100.00
2023-01-01T11:17:26.391Z,100.00
2023-01-01T11:19:59.807Z,100.00
2023-01-01T11:22:46.863Z,100.00
2023-01-01T11:25:21.103Z,100.00
2023-01-01T11:27:49.164Z,100.00
2023-01-01T11:30:22.457Z,100.00
2023-01-01T11:32:55.435Z,100.00
2023-01-01T11:35:26.131Z,100.00
2023-01-01T11:37:55.006Z,100.00
2023-01-01T11:40:29.554Z,100.00
2023-01-01T11:43:01.265Z,100.00
2023-01-01T11:45:37.788Z,100.00
2023-01-01T11:48:13.743Z,100.00
2023-01-01T11:50:53.662Z,100.00
2023-01-01T11:53:31.966Z,100.00
2023-01-01T11:56:16.480Z,100.00
2023-01-01T11:59:00.213Z,100.00
2023-01-01T12:01:43.225Z,100.00
2023-01-01T12:04:26.152Z,100.00
2023-01-01T12:07:00.049Z,100.00
2023-01-01T12:09:46.769Z,100.00
2023-01-01T12:12:19.355Z,100.00
2023-01-01T12:15:07.256Z,100.00
2023-01-01T12:17:41.185Z,100.00
2023-01-01T12:20:29.888Z,100.00
2023-01-01T12:23:00.845Z,100.00
2023-01-01T12:25:38.711Z,100.00
2023-01-01T12:28:26.068Z,100.00
2023-01-01T12:31:23.245Z,100.00
2023-01-01T12:33:57.019Z,100.00
2023-01-01T12:36:44.087Z,100.00
2023-01-01T12:39:46.032Z,100.00
2023-01-01T12:42:35.077Z,100.00
2023-01-01T12:45:14.099Z,100.00
2023-01-01T12:47:55.301Z,100.00
2023-01-01T12:50:34.837Z,100.00
2023-01-01T12:53:38.388Z,100.00
2023-01-01T12:56:10.027Z,98.97
2023-01-01T12:58:54.998Z,99.46
2023-01-01T13:01:28.469Z,99.77
2023-01-01T13:04:02.615Z,100.00
2023-01-01T13:06:36.604Z,100.00
2023-01-01T13:09:10.936Z,100.00
2023-01-01T13:11:44.907Z,100.00
2023-01-01T13:14:12.685Z,100.00
2023-01-01T13:16:42.394Z,100.00
2023-01-01T13:19:25.601Z,96.89
2023-01-01T13:21:52.512Z,96.24
2023-01-01T13:24:22.585Z,97.77
2023-01-01T13:26:50.238Z,96.69
2023-01-01T13:29:32.410Z,95.74
2023-01-01T13:32:02.120Z,95.59
2023-01-01T13:34:37.809Z,94.70
2023-01-01T13:37:24.327Z,93.05
2023-01-01T13:40:06.767Z,94.63
2023-01-01T13:42:40.093Z,91.40
2023-01-01T13:45:44.206Z,90.60
2023-01-01T13:48:41.244Z,88.40
2023-01-01T13:52:02.944Z,84.95
2023-01-01T13:54:41.607Z,81.39
2023-01-01T13:57:42.290Z,78.91
2023-01-01T14:00:25.592Z,75.04
2023-01-01T14:03:00.549Z,73.24
2023-01-01T14:05:33.555Z,69.14
2023-01-01T14:08:00.444Z,68.77
2023-01-01T14:10:32.998Z,66.88
2023-01-01T14:13:17.289Z,66.74
2023-01-01T14:16:02.131Z,66.89
2023-01-01T14:18:38.494Z,68.35
2023-01-01T14:21:11.406Z,69.87
2023-01-01T14:23:43.871Z,70.87
2023-01-01T14:26:14.868Z,71.21
2023-01-01T14:28:42.452Z,73.34
2023-01-01T14:31:13.792Z,74.90
2023-01-01T14:33:40.580Z,76.20
2023-01-01T14:36:16.064Z,77.03
2023-01-01T14:38:45.377Z,75.08
2023-01-01T14:41:31.202Z,76.02
2023-01-01T14:44:04.688Z,77.63
2023-01-01T14:46:31.901Z,78.00
2023-01-01T14:49:03.185Z,79.00
2023-01-01T14:51:31.948Z,81.27
2023-01-01T14:54:01.869Z,82.67
2023-01-01T14:56:30.329Z,84.67
2023-01-01T14:59:12.278Z,87.40
2023-01-01T15:01:42.631Z,88.37
2023-01-01T15:04:20.358Z,89.14
2023-01-01T15:06:56.908Z,90.07
2023-01-01T15:09:24.269Z,91.61
2023-01-01T15:11:54.300Z,94.53
2023-01-01T15:14:37.832Z,96.42
2023-01-01T15:17:08.375Z,97.34
2023-01-01T15:19:36.766Z,98.19
2023-01-01T15:22:19.718Z,99.73
2023-01-01T15:24:46.558Z,99.95
2023-01-01T15:27:30.149Z,100.00
2023-01-01T15:29:57.777Z,100.00
2023-01-01T15:32:28.656Z,100.00
2023-01-01T15:34:57.698Z,100.00
2023-01-01T15:37:45.248Z,100.00
2023-01-01T15:40:12.909Z,100.00
2023-01-01T15:42:49.279Z,100.00
2023-01-01T15:45:19.140Z,100.00
2023-01-01T15:47:47.450Z,100.00
2023-01-01T15:50:26.020Z,100.00
2023-01-01T15:52:59.152Z,100.00
2023-01-01T15:55:28.183Z,100.00
2023-01-01T15:57:55.647Z,100.00
2023-01-01T16:00:26.247Z,100.00
2023-01-01T16:02:58.159Z,100.00
2023-01-01T16:05:26.972Z,100.00
2023-01-01T16:08:10.616Z,100.00
2023-01-01T16:10:37.320Z,100.00
2023-01-01T16:13:04.113Z,100.00
2023-01-01T16:15:30.769Z,100.00
2023-01-01T16:17:57.478Z,100.00
2023-01-01T16:20:25.400Z,100.00
2023-01-01T16:22:52.271Z,100.00
2023-01-01T16:25:21.742Z,100.00
2023-01-01T16:27:48.824Z,100.00
2023-01-01T16:30:15.649Z,100.00
2023-01-01T16:32:42.540Z,100.00
2023-01-01T16:35:13.772Z,100.00
2023-01-01T16:37:40.412Z,100.00
2023-01-01T16:40:09.410Z,100.00
2023-01-01T16:42:36.318Z,100.00
2023-01-01T16:45:03.375Z,100.00
2023-01-01T16:47:30.016Z,100.00
2023-01-01T16:49:56.751Z,100.00
2023-01-01T16:52:23.390Z,100.00
2023-01-01T16:54:50.153Z,100.00
2023-01-01T16:57:16.779Z,100.00
2023-01-01T16:59:43.444Z,100.00
2023-01-01T17:02:11.350Z,100.00
2023-01-01T17:04:38.145Z,100.00
2023-01-01T17:07:04.789Z,100.00
2023-01-01T17:09:31.458Z,100.00
2023-01-01T17:11:58.058Z,100.00
2023-01-01T17:14:24.872Z,100.00
2023-01-01T17:16:55.304Z,100.00
2023-01-01T17:19:22.246Z,100.00
2023-01-01T17:21:49.016Z,100.00
2023-01-01T17:24:17.143Z,100.00
2023-01-01T17:26:44.258Z,100.00
2023-01-01T17:29:12.070Z,100.00
2023-01-01T17:31:38.957Z,100.00
2023-01-01T17:34:05.636Z,100.00
2023-01-01T17:36:32.442Z,100.00
2023-01-01T17:38:59.221Z,100.00
2023-01-01T17:41:26.000Z,100.00
2023-01-01T17:43:52.968Z,100.00
2023-01-01T17:46:22.292Z,100.00
2023-01-01T17:48:49.806Z,100.00
2023-01-01T17:51:17.716Z,100.00
2023-01-01T17:53:44.847Z,100.00
2023-01-01T17:56:15.300Z,100.00
2023-01-01T17:58:43.868Z,100.00
2023-01-01T18:01:25.911Z,100.00
2023-01-01T18:03:55.578Z,100.00
2023-01-01T18:06:22.398Z,100.00
2023-01-01T18:08:53.861Z,100.00
2023-01-01T18:11:20.533Z,100.00
2023-01-01T18:13:47.304Z,100.00
2023-01-01T18:16:13.989Z,100.00
2023-01-01T18:18:40.970Z,100.00
2023-01-01T18:21:12.337Z,100.00
2023-01-01T18:23:39.997Z,100.00
2023-01-01T18:26:09.897Z,100.00
2023-01-01T18:28:37.570Z,100.00
2023-01-01T18:31:14.681Z,100.00
2023-01-01T18:33:41.917Z,100.00
2023-01-01T18:36:12.410Z,100.00
2023-01-01T18:38:40.386Z,100.00
2023-01-01T18:41:26.979Z,100.00
2023-01-01T18:43:54.240Z,100.00
2023-01-01T18:46:23.427Z,100.00
2023-01-01T18:48:55.392Z,100.00
2023-01-01T18:51:25.948Z,100.00
2023-01-01T18:53:58.391Z,100.00
2023-01-01T18:56:25.627Z,100.00
2023-01-01T18:58:56.294Z,100.00
2023-01-01T19:01:24.239Z,100.00
2023-01-01T19:03:54.812Z,100.00
2023-01-01T19:06:27.319Z,100.00
2023-01-01T19:09:25.322Z,100.00
2023-01-01T19:11:54.584Z,100.00
2023-01-01T19:14:23.520Z,100.00
2023-01-01T19:16:55.140Z,100.00
2023-01-01T19:19:24.531Z,100.00
2023-01-01T19:21:54.726Z,100.00
2023-01-01T19:24:24.627Z,100.00
2023-01-01T19:27:16.050Z,100.00
2023-01-01T19:29:44.959Z,100.00
2023-01-01T19:32:11.984Z,100.00
2023-01-01T19:34:39.833Z,100.00
2023-01-01T19:37:07.657Z,100.00
2023-01-01T19:39:35.234Z,100.00
2023-01-01T19:42:05.148Z,100.00
2023-01-01T19:44:32.097Z,100.00
2023-01-01T19:47:00.596Z,100.00
2023-01-01T19:49:28.238Z,100.00
2023-01-01T19:51:54.922Z,100.00
2023-01-01T19:54:21.649Z,100.00
2023-01-01T19:56:49.994Z,100.00
2023-01-01T19:59:16.879Z,100.00
2023-01-01T20:01:43.708Z,100.00
2023-01-01T20:04:10.584Z,100.00
2023-01-01T20:06:37.887Z,100.00
2023-01-01T20:09:04.656Z,100.00
2023-01-01T20:11:32.202Z,100.00
2023-01-01T20:13:59.205Z,100.00
2023-01-01T20:16:25.984Z,100.00
2023-01-01T20:18:52.867Z,100.00
2023-01-01T20:21:34.761Z,100.00
2023-01-01T20:24:01.615Z,100.00
2023-01-01T20:26:28.292Z,100.00
2023-01-01T20:29:10.235Z,100.00
2023-01-01T20:31:37.367Z,100.00
2023-01-01T20:34:04.288Z,100.00
2023-01-01T20:36:46.402Z,100.00
2023-01-01T20:39:14.147Z,100.00
2023-01-01T20:41:40.892Z,100.00
2023-01-01T20:44:07.575Z,100.00
2023-01-01T20:46:35.230Z,100.00
2023-01-01T20:49:01.965Z,100.00
2023-01-01T20:51:28.674Z,100.00
2023-01-01T20:53:55.988Z,100.00
2023-01-01T20:56:22.754Z,100.00
2023-01-01T20:58:54.525Z,100.00
2023-01-01T21:01:24.414Z,100.00
2023-01-01T21:03:51.097Z,100.00
2023-01-01T21:06:23.741Z,100.00
2023-01-01T21:08:51.371Z,100.00
2023-01-01T21:11:18.173Z,100.00
2023-01-01T21:13:45.542Z,100.00
2023-01-01T21:16:16.698Z,100.00
2023-01-01T21:18:43.927Z,100.00
2023-01-01T21:21:19.224Z,100.00
2023-01-01T21:23:46.144Z,100.00
2023-01-01T21:26:19.277Z,100.00
2023-01-01T21:28:47.326Z,100.00
2023-01-01T21:31:15.495Z,100.00
2023-01-01T21:33:44.615Z,100.00
2023-01-01T21:36:15.804Z,100.00
2023-01-01T21:38:42.624Z,100.00
2023-01-01T21:41:28.799Z,100.00
2023-01-01T21:43:57.958Z,100.00
2023-01-01T21:46:24.742Z,100.00
2023-01-01T21:48:58.119Z,100.00
2023-01-01T21:51:28.628Z,100.00
2023-01-01T21:54:17.417Z,100.00
2023-01-01T21:56:52.899Z,100.00
2023-01-01T21:59:32.169Z,100.00
2023-01-01T22:02:31.199Z,100.00
2023-01-01T22:05:00.258Z,100.00
2023-01-01T22:10:22.616Z,100.00
2023-01-01T22:12:57.864Z,100.00
2023-01-01T22:15:25.735Z,100.00
2023-01-01T22:18:12.324Z,100.00
2023-01-01T22:20:40.569Z,100.00
2023-01-01T22:23:24.389Z,100.00
2023-01-01T22:25:52.594Z,100.00
2023-01-01T22:28:23.533Z,100.00
2023-01-01T22:30:55.306Z,100.00
2023-01-01T22:33:27.963Z,100.00
2023-01-01T22:35:57.309Z,100.00
2023-01-01T22:38:32.447Z,100.00
2023-01-01T22:40:59.834Z,100.00
2023-01-01T22:43:33.491Z,100.00
2023-01-01T22:46:10.671Z,100.00
2023-01-01T22:48:38.806Z,100.00
2023-01-01T22:51:11.940Z,100.00
2023-01-01T22:53:38.642Z,100.00
2023-01-01T22:56:05.597Z,100.00
2023-01-01T22:58:32.295Z,100.00
2023-01-01T23:00:59.096Z,100.00
2023-01-01T23:03:25.891Z,100.00
2023-01-01T23:05:54.278Z,100.00
2023-01-01T23:08:25.371Z,100.00
2023-01-01T23:10:56.611Z,100.00
2023-01-01T23:13:39.033Z,100.00
2023-01-01T23:16:05.782Z,100.00
2023-01-01T23:18:34.958Z,100.00
2023-01-01T23:21:05.328Z,100.00
2023-01-01T23:23:32.623Z,100.00
2023-01-01T23:26:00.782Z,100.00
2023-01-01T23:28:30.215Z,100.00
2023-01-01T23:30:58.674Z,100.00
2023-01-01T23:33:25.580Z,100.00
2023-01-01T23:35:52.987Z,100.00
2023-01-01T23:38:20.900Z,100.00
2023-01-01T23:40:47.576Z,100.00
2023-01-01T23:43:14.286Z,100.00
2023-01-01T23:45:41.372Z,100.00
2023-01-01T23:48:08.324Z,100.00
2023-01-01T23:50:35.159Z,100.00
2023-01-01T23:53:02.006Z,100.00
2023-01-01T23:55:28.695Z,100.00
2023-01-01T23:57:55.379Z,100.00
